sensor_id;sensor_type;location;lat;lon;timestamp;P1;durP1;ratioP1;P2;durP2;ratioP2
72882;SDS011;61017;37.812;-122.286;2023-02-28T00:00:59;8.35;;;1.80;;
72882;SDS011;61017;37.812;-122.286;2023-02-28T00:02:53;10.07;;;1.90;;
72882;SDS011;61017;37.812;-122.286;2023-02-28T00:07:06;10.75;;;2.15;;
72882;SDS011;61017;37.812;-122.286;2023-02-28T00:09:08;8.35;;;1.92;;
72882;SDS011;61017;37.812;-122.286;2023-02-28T00:11:18;7.78;;;1.65;;
72882;SDS011;61017;37.812;-122.286;2023-02-28T00:15:58;11.57;;;1.90;;
72882;SDS011;61017;37.812;-122.286;2023-02-28T00:20:25;9.85;;;1.80;;
72882;SDS011;61017;37.812;-122.286;2023-02-28T00:25:01;12.73;;;1.83;;
72882;SDS011;61017;37.812;-122.286;2023-02-28T00:31:25;10.77;;;2.10;;
72882;SDS011;61017;37.812;-122.286;2023-02-28T00:33:17;9.73;;;1.85;;
72882;SDS011;61017;37.812;-122.286;2023-02-28T00:35:09;12.63;;;1.90;;
72882;SDS011;61017;37.812;-122.286;2023-02-28T00:37:14;9.93;;;1.70;;
72882;SDS011;61017;37.812;-122.286;2023-02-28T00:38:53;8.93;;;1.90;;
72882;SDS011;61017;37.812;-122.286;2023-02-28T00:40:34;10.70;;;1.85;;
72882;SDS011;61017;37.812;-122.286;2023-02-28T00:42:35;11.30;;;2.10;;
72882;SDS011;61017;37.812;-122.286;2023-02-28T00:44:12;10.38;;;1.90;;
72882;SDS011;61017;37.812;-122.286;2023-02-28T00:45:47;7.63;;;1.45;;
72882;SDS011;61017;37.812;-122.286;2023-02-28T00:47:26;6.10;;;1.65;;
72882;SDS011;61017;37.812;-122.286;2023-02-28T00:48:58;8.25;;;1.70;;
72882;SDS011;61017;37.812;-122.286;2023-02-28T00:50:30;8.50;;;1.77;;
72882;SDS011;61017;37.812;-122.286;2023-02-28T00:52:02;10.48;;;2.10;;
72882;SDS011;61017;37.812;-122.286;2023-02-28T00:53:34;11.32;;;1.90;;
72882;SDS011;61017;37.812;-122.286;2023-02-28T00:55:13;9.25;;;1.70;;
72882;SDS011;61017;37.812;-122.286;2023-02-28T00:56:48;7.65;;;1.70;;
72882;SDS011;61017;37.812;-122.286;2023-02-28T00:58:25;8.25;;;1.60;;
72882;SDS011;61017;37.812;-122.286;2023-02-28T00:59:56;7.03;;;1.60;;
72882;SDS011;61017;37.812;-122.286;2023-02-28T01:01:28;8.25;;;1.73;;
72882;SDS011;61017;37.812;-122.286;2023-02-28T01:03:02;7.53;;;1.77;;
72882;SDS011;61017;37.812;-122.286;2023-02-28T01:04:34;10.65;;;2.03;;
72882;SDS011;61017;37.812;-122.286;2023-02-28T01:06:11;4.53;;;1.30;;
72882;SDS011;61017;37.812;-122.286;2023-02-28T01:07:42;5.65;;;1.40;;
72882;SDS011;61017;37.812;-122.286;2023-02-28T01:09:14;4.80;;;1.50;;
72882;SDS011;61017;37.812;-122.286;2023-02-28T01:10:46;7.00;;;1.30;;
72882;SDS011;61017;37.812;-122.286;2023-02-28T01:12:23;7.85;;;2.10;;
72882;SDS011;61017;37.812;-122.286;2023-02-28T01:14:00;5.65;;;1.40;;
72882;SDS011;61017;37.812;-122.286;2023-02-28T01:15:34;5.32;;;1.42;;
72882;SDS011;61017;37.812;-122.286;2023-02-28T01:17:13;3.97;;;1.27;;
72882;SDS011;61017;37.812;-122.286;2023-02-28T01:18:47;6.00;;;1.70;;
72882;SDS011;61017;37.812;-122.286;2023-02-28T01:20:22;7.78;;;1.50;;
72882;SDS011;61017;37.812;-122.286;2023-02-28T01:21:56;6.68;;;1.50;;
72882;SDS011;61017;37.812;-122.286;2023-02-28T01:23:32;4.85;;;1.50;;
72882;SDS011;61017;37.812;-122.286;2023-02-28T01:25:15;4.82;;;1.33;;
72882;SDS011;61017;37.812;-122.286;2023-02-28T01:26:58;5.97;;;1.30;;
72882;SDS011;61017;37.812;-122.286;2023-02-28T01:28:51;4.97;;;1.30;;
72882;SDS011;61017;37.812;-122.286;2023-02-28T01:30:37;7.05;;;1.58;;
72882;SDS011;61017;37.812;-122.286;2023-02-28T01:32:09;4.05;;;1.40;;
72882;SDS011;61017;37.812;-122.286;2023-02-28T01:33:44;3.67;;;1.30;;
72882;SDS011;61017;37.812;-122.286;2023-02-28T01:35:19;6.80;;;1.58;;
72882;SDS011;61017;37.812;-122.286;2023-02-28T01:36:51;5.50;;;1.38;;
72882;SDS011;61017;37.812;-122.286;2023-02-28T01:38:28;4.93;;;1.45;;
72882;SDS011;61017;37.812;-122.286;2023-02-28T01:40:00;6.05;;;1.60;;
72882;SDS011;61017;37.812;-122.286;2023-02-28T01:41:37;4.95;;;1.30;;
72882;SDS011;61017;37.812;-122.286;2023-02-28T01:43:27;4.28;;;1.33;;
72882;SDS011;61017;37.812;-122.286;2023-02-28T01:48:18;4.22;;;1.17;;
72882;SDS011;61017;37.812;-122.286;2023-02-28T01:50:37;6.90;;;1.58;;
72882;SDS011;61017;37.812;-122.286;2023-02-28T01:52:28;5.95;;;1.38;;
72882;SDS011;61017;37.812;-122.286;2023-02-28T01:54:05;4.20;;;1.20;;
72882;SDS011;61017;37.812;-122.286;2023-02-28T01:55:45;4.60;;;1.35;;
72882;SDS011;61017;37.812;-122.286;2023-02-28T01:59:04;4.60;;;1.40;;
72882;SDS011;61017;37.812;-122.286;2023-02-28T02:00:49;5.03;;;1.10;;
72882;SDS011;61017;37.812;-122.286;2023-02-28T02:02:33;4.65;;;1.27;;
72882;SDS011;61017;37.812;-122.286;2023-02-28T02:04:12;4.05;;;1.17;;
72882;SDS011;61017;37.812;-122.286;2023-02-28T02:05:55;5.95;;;1.63;;
72882;SDS011;61017;37.812;-122.286;2023-02-28T02:07:30;3.60;;;1.27;;
72882;SDS011;61017;37.812;-122.286;2023-02-28T02:09:07;3.00;;;1.10;;
72882;SDS011;61017;37.812;-122.286;2023-02-28T02:10:46;5.20;;;1.60;;
72882;SDS011;61017;37.812;-122.286;2023-02-28T02:16:43;3.92;;;1.10;;
72882;SDS011;61017;37.812;-122.286;2023-02-28T02:25:56;6.90;;;1.50;;
72882;SDS011;61017;37.812;-122.286;2023-02-28T02:32:09;3.80;;;1.35;;
72882;SDS011;61017;37.812;-122.286;2023-02-28T02:36:48;5.63;;;1.40;;
72882;SDS011;61017;37.812;-122.286;2023-02-28T02:46:45;5.68;;;1.40;;
72882;SDS011;61017;37.812;-122.286;2023-02-28T02:48:30;3.95;;;1.30;;
72882;SDS011;61017;37.812;-122.286;2023-02-28T02:50:23;4.35;;;1.40;;
72882;SDS011;61017;37.812;-122.286;2023-02-28T02:52:13;4.70;;;1.27;;
72882;SDS011;61017;37.812;-122.286;2023-02-28T02:53:55;4.07;;;1.30;;
72882;SDS011;61017;37.812;-122.286;2023-02-28T02:55:48;6.15;;;1.50;;
72882;SDS011;61017;37.812;-122.286;2023-02-28T02:57:48;4.47;;;1.35;;
72882;SDS011;61017;37.812;-122.286;2023-02-28T02:59:29;4.97;;;1.30;;
72882;SDS011;61017;37.812;-122.286;2023-02-28T03:01:10;6.13;;;1.40;;
72882;SDS011;61017;37.812;-122.286;2023-02-28T03:02:46;4.18;;;1.25;;
72882;SDS011;61017;37.812;-122.286;2023-02-28T03:05:52;4.32;;;1.40;;
72882;SDS011;61017;37.812;-122.286;2023-02-28T03:12:13;5.88;;;1.55;;
72882;SDS011;61017;37.812;-122.286;2023-02-28T03:14:56;5.03;;;1.20;;
72882;SDS011;61017;37.812;-122.286;2023-02-28T03:17:24;4.30;;;1.33;;
72882;SDS011;61017;37.812;-122.286;2023-02-28T03:21:23;4.18;;;1.45;;
72882;SDS011;61017;37.812;-122.286;2023-02-28T03:23:13;5.78;;;1.50;;
72882;SDS011;61017;37.812;-122.286;2023-02-28T03:27:22;3.65;;;1.30;;
72882;SDS011;61017;37.812;-122.286;2023-02-28T03:32:16;8.57;;;2.00;;
72882;SDS011;61017;37.812;-122.286;2023-02-28T03:36:09;5.60;;;1.63;;
72882;SDS011;61017;37.812;-122.286;2023-02-28T03:38:06;5.70;;;1.70;;
72882;SDS011;61017;37.812;-122.286;2023-02-28T03:42:07;5.30;;;1.60;;
72882;SDS011;61017;37.812;-122.286;2023-02-28T03:44:11;6.78;;;1.83;;
72882;SDS011;61017;37.812;-122.286;2023-02-28T03:46:20;6.70;;;1.65;;
72882;SDS011;61017;37.812;-122.286;2023-02-28T03:48:01;6.55;;;1.35;;
72882;SDS011;61017;37.812;-122.286;2023-02-28T03:50:41;7.05;;;1.40;;
72882;SDS011;61017;37.812;-122.286;2023-02-28T03:52:38;5.63;;;1.30;;
72882;SDS011;61017;37.812;-122.286;2023-02-28T03:54:20;5.20;;;1.25;;
72882;SDS011;61017;37.812;-122.286;2023-02-28T03:56:38;8.35;;;1.50;;
72882;SDS011;61017;37.812;-122.286;2023-02-28T04:01:15;5.45;;;1.58;;
72882;SDS011;61017;37.812;-122.286;2023-02-28T04:02:41;3.85;;;1.40;;
72882;SDS011;61017;37.812;-122.286;2023-02-28T04:04:25;5.22;;;1.42;;
72882;SDS011;61017;37.812;-122.286;2023-02-28T04:06:21;5.28;;;1.50;;
72882;SDS011;61017;37.812;-122.286;2023-02-28T04:08:05;7.85;;;1.50;;
72882;SDS011;61017;37.812;-122.286;2023-02-28T04:11:53;3.75;;;1.27;;
72882;SDS011;61017;37.812;-122.286;2023-02-28T04:13:55;6.80;;;1.60;;
72882;SDS011;61017;37.812;-122.286;2023-02-28T04:15:39;5.93;;;1.50;;
72882;SDS011;61017;37.812;-122.286;2023-02-28T04:17:27;6.50;;;1.65;;
72882;SDS011;61017;37.812;-122.286;2023-02-28T04:19:16;4.78;;;1.40;;
72882;SDS011;61017;37.812;-122.286;2023-02-28T04:25:39;5.82;;;1.58;;
72882;SDS011;61017;37.812;-122.286;2023-02-28T04:27:33;7.20;;;1.90;;
72882;SDS011;61017;37.812;-122.286;2023-02-28T04:32:02;4.03;;;1.27;;
72882;SDS011;61017;37.812;-122.286;2023-02-28T04:35:39;9.05;;;1.58;;
72882;SDS011;61017;37.812;-122.286;2023-02-28T04:37:31;5.35;;;1.40;;
72882;SDS011;61017;37.812;-122.286;2023-02-28T04:39:02;4.80;;;1.25;;
72882;SDS011;61017;37.812;-122.286;2023-02-28T04:44:53;4.88;;;1.63;;
72882;SDS011;61017;37.812;-122.286;2023-02-28T04:46:45;3.95;;;1.20;;
72882;SDS011;61017;37.812;-122.286;2023-02-28T04:48:19;5.63;;;1.38;;
72882;SDS011;61017;37.812;-122.286;2023-02-28T04:49:56;4.43;;;1.25;;
72882;SDS011;61017;37.812;-122.286;2023-02-28T04:51:44;4.13;;;1.42;;
72882;SDS011;61017;37.812;-122.286;2023-02-28T04:53:42;4.18;;;1.40;;
72882;SDS011;61017;37.812;-122.286;2023-02-28T04:55:29;5.28;;;1.40;;
72882;SDS011;61017;37.812;-122.286;2023-02-28T04:57:03;5.80;;;1.42;;
72882;SDS011;61017;37.812;-122.286;2023-02-28T04:59:04;4.00;;;1.40;;
72882;SDS011;61017;37.812;-122.286;2023-02-28T05:00:41;4.03;;;1.27;;
72882;SDS011;61017;37.812;-122.286;2023-02-28T05:02:13;4.40;;;1.50;;
72882;SDS011;61017;37.812;-122.286;2023-02-28T05:03:44;5.20;;;1.50;;
72882;SDS011;61017;37.812;-122.286;2023-02-28T05:05:16;4.28;;;1.38;;
72882;SDS011;61017;37.812;-122.286;2023-02-28T05:06:56;4.78;;;1.60;;
72882;SDS011;61017;37.812;-122.286;2023-02-28T05:08:31;3.55;;;1.40;;
72882;SDS011;61017;37.812;-122.286;2023-02-28T05:10:28;4.97;;;1.30;;
72882;SDS011;61017;37.812;-122.286;2023-02-28T05:12:03;4.15;;;1.30;;
72882;SDS011;61017;37.812;-122.286;2023-02-28T05:14:04;4.75;;;1.20;;
72882;SDS011;61017;37.812;-122.286;2023-02-28T05:15:49;4.32;;;1.45;;
72882;SDS011;61017;37.812;-122.286;2023-02-28T05:17:23;4.35;;;1.48;;
72882;SDS011;61017;37.812;-122.286;2023-02-28T05:19:03;4.75;;;1.30;;
72882;SDS011;61017;37.812;-122.286;2023-02-28T05:20:35;6.68;;;1.60;;
72882;SDS011;61017;37.812;-122.286;2023-02-28T05:22:15;5.03;;;1.60;;
72882;SDS011;61017;37.812;-122.286;2023-02-28T05:24:04;6.00;;;1.60;;
72882;SDS011;61017;37.812;-122.286;2023-02-28T05:25:37;3.67;;;1.25;;
72882;SDS011;61017;37.812;-122.286;2023-02-28T05:27:14;7.35;;;1.67;;
72882;SDS011;61017;37.812;-122.286;2023-02-28T05:28:51;4.47;;;1.40;;
72882;SDS011;61017;37.812;-122.286;2023-02-28T05:30:31;4.07;;;1.40;;
72882;SDS011;61017;37.812;-122.286;2023-02-28T05:32:09;3.65;;;1.23;;
72882;SDS011;61017;37.812;-122.286;2023-02-28T05:33:46;5.55;;;1.58;;
72882;SDS011;61017;37.812;-122.286;2023-02-28T05:35:21;4.57;;;1.70;;
72882;SDS011;61017;37.812;-122.286;2023-02-28T05:38:42;5.00;;;1.35;;
72882;SDS011;61017;37.812;-122.286;2023-02-28T05:41:57;4.88;;;1.42;;
72882;SDS011;61017;37.812;-122.286;2023-02-28T05:43:36;4.85;;;1.52;;
72882;SDS011;61017;37.812;-122.286;2023-02-28T05:45:11;4.95;;;1.45;;
72882;SDS011;61017;37.812;-122.286;2023-02-28T05:46:43;5.35;;;1.30;;
72882;SDS011;61017;37.812;-122.286;2023-02-28T05:48:35;3.97;;;1.50;;
72882;SDS011;61017;37.812;-122.286;2023-02-28T05:50:10;4.47;;;1.30;;
72882;SDS011;61017;37.812;-122.286;2023-02-28T05:51:47;5.63;;;1.65;;
72882;SDS011;61017;37.812;-122.286;2023-02-28T05:53:21;4.20;;;1.35;;
72882;SDS011;61017;37.812;-122.286;2023-02-28T05:54:53;4.38;;;1.40;;
72882;SDS011;61017;37.812;-122.286;2023-02-28T05:56:33;6.60;;;1.80;;
72882;SDS011;61017;37.812;-122.286;2023-02-28T05:58:05;5.63;;;1.65;;
72882;SDS011;61017;37.812;-122.286;2023-02-28T05:59:39;5.13;;;1.30;;
72882;SDS011;61017;37.812;-122.286;2023-02-28T06:04:09;7.28;;;1.50;;
72882;SDS011;61017;37.812;-122.286;2023-02-28T06:05:53;7.00;;;1.50;;
72882;SDS011;61017;37.812;-122.286;2023-02-28T06:07:35;7.03;;;1.50;;
72882;SDS011;61017;37.812;-122.286;2023-02-28T06:11:37;4.90;;;1.30;;
72882;SDS011;61017;37.812;-122.286;2023-02-28T06:13:46;6.18;;;1.45;;
72882;SDS011;61017;37.812;-122.286;2023-02-28T06:15:18;6.03;;;1.40;;
72882;SDS011;61017;37.812;-122.286;2023-02-28T06:17:26;3.70;;;1.00;;
72882;SDS011;61017;37.812;-122.286;2023-02-28T06:19:26;2.45;;;1.00;;
72882;SDS011;61017;37.812;-122.286;2023-02-28T06:23:24;6.95;;;1.20;;
72882;SDS011;61017;37.812;-122.286;2023-02-28T06:30:11;4.35;;;1.30;;
72882;SDS011;61017;37.812;-122.286;2023-02-28T06:34:57;4.00;;;1.00;;
72882;SDS011;61017;37.812;-122.286;2023-02-28T06:39:02;3.50;;;1.30;;
72882;SDS011;61017;37.812;-122.286;2023-02-28T06:43:43;3.97;;;1.33;;
72882;SDS011;61017;37.812;-122.286;2023-02-28T06:45:36;4.93;;;1.30;;
72882;SDS011;61017;37.812;-122.286;2023-02-28T06:47:13;2.75;;;1.00;;
72882;SDS011;61017;37.812;-122.286;2023-02-28T06:48:48;4.15;;;1.35;;
72882;SDS011;61017;37.812;-122.286;2023-02-28T06:52:32;4.32;;;1.30;;
72882;SDS011;61017;37.812;-122.286;2023-02-28T06:54:15;4.47;;;1.10;;
72882;SDS011;61017;37.812;-122.286;2023-02-28T06:55:55;3.70;;;1.10;;
72882;SDS011;61017;37.812;-122.286;2023-02-28T06:57:29;4.18;;;1.25;;
72882;SDS011;61017;37.812;-122.286;2023-02-28T07:01:45;4.45;;;0.98;;
72882;SDS011;61017;37.812;-122.286;2023-02-28T07:04:10;4.75;;;1.20;;
72882;SDS011;61017;37.812;-122.286;2023-02-28T07:06:14;5.45;;;1.30;;
72882;SDS011;61017;37.812;-122.286;2023-02-28T07:08:35;3.20;;;1.30;;
72882;SDS011;61017;37.812;-122.286;2023-02-28T07:15:55;3.78;;;1.20;;
72882;SDS011;61017;37.812;-122.286;2023-02-28T07:17:56;3.28;;;1.10;;
72882;SDS011;61017;37.812;-122.286;2023-02-28T07:22:28;3.55;;;1.00;;
72882;SDS011;61017;37.812;-122.286;2023-02-28T07:26:27;3.95;;;1.20;;
72882;SDS011;61017;37.812;-122.286;2023-02-28T07:28:22;4.18;;;1.13;;
72882;SDS011;61017;37.812;-122.286;2023-02-28T07:29:56;3.88;;;1.10;;
72882;SDS011;61017;37.812;-122.286;2023-02-28T07:31:56;5.05;;;1.20;;
72882;SDS011;61017;37.812;-122.286;2023-02-28T07:33:28;4.13;;;1.17;;
72882;SDS011;61017;37.812;-122.286;2023-02-28T07:35:06;3.72;;;1.13;;
72882;SDS011;61017;37.812;-122.286;2023-02-28T07:36:46;2.65;;;1.00;;
72882;SDS011;61017;37.812;-122.286;2023-02-28T07:40:39;3.92;;;1.08;;
72882;SDS011;61017;37.812;-122.286;2023-02-28T07:42:18;4.35;;;1.10;;
72882;SDS011;61017;37.812;-122.286;2023-02-28T07:43:53;2.95;;;1.10;;
72882;SDS011;61017;37.812;-122.286;2023-02-28T07:45:37;4.20;;;1.10;;
72882;SDS011;61017;37.812;-122.286;2023-02-28T07:47:13;3.65;;;1.40;;
72882;SDS011;61017;37.812;-122.286;2023-02-28T07:49:06;4.43;;;1.00;;
72882;SDS011;61017;37.812;-122.286;2023-02-28T07:50:56;2.85;;;1.00;;
72882;SDS011;61017;37.812;-122.286;2023-02-28T07:52:33;2.47;;;0.98;;
72882;SDS011;61017;37.812;-122.286;2023-02-28T07:54:08;3.53;;;1.10;;
72882;SDS011;61017;37.812;-122.286;2023-02-28T07:55:48;4.45;;;1.25;;
72882;SDS011;61017;37.812;-122.286;2023-02-28T07:57:24;4.70;;;1.40;;
72882;SDS011;61017;37.812;-122.286;2023-02-28T07:59:20;6.15;;;1.40;;
72882;SDS011;61017;37.812;-122.286;2023-02-28T08:00:54;4.30;;;1.08;;
72882;SDS011;61017;37.812;-122.286;2023-02-28T08:02:35;2.40;;;1.10;;
72882;SDS011;61017;37.812;-122.286;2023-02-28T08:04:10;3.60;;;1.00;;
72882;SDS011;61017;37.812;-122.286;2023-02-28T08:07:50;3.23;;;1.20;;
72882;SDS011;61017;37.812;-122.286;2023-02-28T08:09:34;3.70;;;1.38;;
72882;SDS011;61017;37.812;-122.286;2023-02-28T08:11:47;3.85;;;1.10;;
72882;SDS011;61017;37.812;-122.286;2023-02-28T08:13:33;3.15;;;1.10;;
72882;SDS011;61017;37.812;-122.286;2023-02-28T08:15:08;3.13;;;1.17;;
72882;SDS011;61017;37.812;-122.286;2023-02-28T08:16:49;4.45;;;1.40;;
72882;SDS011;61017;37.812;-122.286;2023-02-28T08:18:55;4.35;;;1.35;;
72882;SDS011;61017;37.812;-122.286;2023-02-28T08:20:37;3.55;;;1.50;;
72882;SDS011;61017;37.812;-122.286;2023-02-28T08:22:22;2.85;;;1.10;;
72882;SDS011;61017;37.812;-122.286;2023-02-28T08:23:56;4.38;;;1.23;;
72882;SDS011;61017;37.812;-122.286;2023-02-28T08:25:52;5.18;;;1.40;;
72882;SDS011;61017;37.812;-122.286;2023-02-28T08:27:28;3.83;;;1.13;;
72882;SDS011;61017;37.812;-122.286;2023-02-28T08:29:23;4.78;;;1.60;;
72882;SDS011;61017;37.812;-122.286;2023-02-28T08:31:00;5.43;;;1.60;;
72882;SDS011;61017;37.812;-122.286;2023-02-28T08:34:35;5.07;;;1.40;;
72882;SDS011;61017;37.812;-122.286;2023-02-28T08:36:24;4.68;;;1.30;;
72882;SDS011;61017;37.812;-122.286;2023-02-28T08:38:16;4.82;;;1.50;;
72882;SDS011;61017;37.812;-122.286;2023-02-28T08:40:13;4.28;;;1.42;;
72882;SDS011;61017;37.812;-122.286;2023-02-28T08:41:48;4.50;;;1.30;;
72882;SDS011;61017;37.812;-122.286;2023-02-28T08:43:25;6.55;;;1.48;;
72882;SDS011;61017;37.812;-122.286;2023-02-28T08:44:57;5.32;;;1.40;;
72882;SDS011;61017;37.812;-122.286;2023-02-28T08:46:34;4.15;;;1.33;;
72882;SDS011;61017;37.812;-122.286;2023-02-28T08:48:12;4.05;;;1.27;;
72882;SDS011;61017;37.812;-122.286;2023-02-28T08:50:07;4.90;;;1.35;;
72882;SDS011;61017;37.812;-122.286;2023-02-28T08:51:53;4.97;;;1.60;;
72882;SDS011;61017;37.812;-122.286;2023-02-28T08:53:43;4.13;;;1.30;;
72882;SDS011;61017;37.812;-122.286;2023-02-28T08:55:35;7.22;;;1.60;;
72882;SDS011;61017;37.812;-122.286;2023-02-28T09:00:08;6.90;;;1.60;;
72882;SDS011;61017;37.812;-122.286;2023-02-28T09:03:58;3.47;;;1.20;;
72882;SDS011;61017;37.812;-122.286;2023-02-28T09:05:38;4.93;;;1.30;;
72882;SDS011;61017;37.812;-122.286;2023-02-28T09:07:13;5.88;;;1.45;;
72882;SDS011;61017;37.812;-122.286;2023-02-28T09:08:53;7.35;;;1.38;;
72882;SDS011;61017;37.812;-122.286;2023-02-28T09:12:52;7.63;;;1.70;;
72882;SDS011;61017;37.812;-122.286;2023-02-28T09:14:24;5.53;;;1.35;;
72882;SDS011;61017;37.812;-122.286;2023-02-28T09:16:06;4.97;;;1.48;;
72882;SDS011;61017;37.812;-122.286;2023-02-28T09:17:39;5.72;;;1.40;;
72882;SDS011;61017;37.812;-122.286;2023-02-28T09:19:11;5.38;;;1.50;;
72882;SDS011;61017;37.812;-122.286;2023-02-28T09:20:43;5.82;;;1.23;;
72882;SDS011;61017;37.812;-122.286;2023-02-28T09:22:15;5.90;;;1.52;;
72882;SDS011;61017;37.812;-122.286;2023-02-28T09:23:53;5.25;;;1.27;;
72882;SDS011;61017;37.812;-122.286;2023-02-28T09:25:40;4.85;;;1.50;;
72882;SDS011;61017;37.812;-122.286;2023-02-28T09:27:40;5.20;;;1.40;;
72882;SDS011;61017;37.812;-122.286;2023-02-28T09:29:11;7.35;;;1.70;;
72882;SDS011;61017;37.812;-122.286;2023-02-28T09:30:52;6.88;;;1.45;;
72882;SDS011;61017;37.812;-122.286;2023-02-28T09:32:29;6.72;;;1.42;;
72882;SDS011;61017;37.812;-122.286;2023-02-28T09:34:04;3.75;;;1.33;;
72882;SDS011;61017;37.812;-122.286;2023-02-28T09:35:39;5.22;;;1.40;;
72882;SDS011;61017;37.812;-122.286;2023-02-28T09:37:10;3.42;;;1.20;;
72882;SDS011;61017;37.812;-122.286;2023-02-28T09:38:54;4.90;;;1.30;;
72882;SDS011;61017;37.812;-122.286;2023-02-28T09:40:31;6.63;;;1.48;;
72882;SDS011;61017;37.812;-122.286;2023-02-28T09:42:11;4.65;;;1.20;;
72882;SDS011;61017;37.812;-122.286;2023-02-28T09:46:11;5.10;;;1.35;;
72882;SDS011;61017;37.812;-122.286;2023-02-28T09:48:23;4.25;;;1.40;;
72882;SDS011;61017;37.812;-122.286;2023-02-28T09:50:35;5.30;;;1.35;;
72882;SDS011;61017;37.812;-122.286;2023-02-28T09:52:18;4.85;;;1.42;;
72882;SDS011;61017;37.812;-122.286;2023-02-28T09:53:58;5.78;;;1.27;;
72882;SDS011;61017;37.812;-122.286;2023-02-28T09:56:04;4.43;;;1.70;;
72882;SDS011;61017;37.812;-122.286;2023-02-28T09:57:57;3.83;;;1.10;;
72882;SDS011;61017;37.812;-122.286;2023-02-28T10:02:13;5.78;;;1.40;;
72882;SDS011;61017;37.812;-122.286;2023-02-28T10:03:59;4.97;;;1.20;;
72882;SDS011;61017;37.812;-122.286;2023-02-28T10:08:16;4.10;;;1.25;;
72882;SDS011;61017;37.812;-122.286;2023-02-28T10:10:20;3.92;;;1.25;;
72882;SDS011;61017;37.812;-122.286;2023-02-28T10:12:06;5.25;;;1.42;;
72882;SDS011;61017;37.812;-122.286;2023-02-28T10:13:50;4.47;;;1.30;;
72882;SDS011;61017;37.812;-122.286;2023-02-28T10:15:40;4.03;;;1.30;;
72882;SDS011;61017;37.812;-122.286;2023-02-28T10:17:30;4.80;;;1.30;;
72882;SDS011;61017;37.812;-122.286;2023-02-28T10:20:02;4.32;;;1.25;;
72882;SDS011;61017;37.812;-122.286;2023-02-28T10:24:04;5.65;;;1.33;;
72882;SDS011;61017;37.812;-122.286;2023-02-28T10:26:08;3.55;;;1.25;;
72882;SDS011;61017;37.812;-122.286;2023-02-28T10:27:47;7.05;;;1.50;;
72882;SDS011;61017;37.812;-122.286;2023-02-28T10:30:01;4.50;;;1.50;;
72882;SDS011;61017;37.812;-122.286;2023-02-28T10:31:39;4.05;;;1.38;;
72882;SDS011;61017;37.812;-122.286;2023-02-28T10:35:22;4.40;;;1.50;;
72882;SDS011;61017;37.812;-122.286;2023-02-28T10:37:04;3.63;;;1.42;;
72882;SDS011;61017;37.812;-122.286;2023-02-28T10:38:40;4.28;;;1.40;;
72882;SDS011;61017;37.812;-122.286;2023-02-28T10:40:31;5.05;;;1.60;;
72882;SDS011;61017;37.812;-122.286;2023-02-28T10:42:26;4.20;;;1.60;;
72882;SDS011;61017;37.812;-122.286;2023-02-28T10:44:17;4.72;;;1.70;;
72882;SDS011;61017;37.812;-122.286;2023-02-28T10:47:34;5.28;;;1.58;;
72882;SDS011;61017;37.812;-122.286;2023-02-28T10:49:17;4.50;;;1.45;;
72882;SDS011;61017;37.812;-122.286;2023-02-28T10:50:53;4.88;;;1.48;;
72882;SDS011;61017;37.812;-122.286;2023-02-28T10:54:18;5.55;;;1.50;;
72882;SDS011;61017;37.812;-122.286;2023-02-28T10:55:59;4.57;;;1.50;;
72882;SDS011;61017;37.812;-122.286;2023-02-28T10:57:40;5.43;;;1.60;;
72882;SDS011;61017;37.812;-122.286;2023-02-28T10:59:26;6.55;;;2.00;;
72882;SDS011;61017;37.812;-122.286;2023-02-28T11:01:00;4.95;;;1.60;;
72882;SDS011;61017;37.812;-122.286;2023-02-28T11:02:35;4.38;;;1.50;;
72882;SDS011;61017;37.812;-122.286;2023-02-28T11:04:16;4.85;;;1.65;;
72882;SDS011;61017;37.812;-122.286;2023-02-28T11:05:54;5.05;;;1.52;;
72882;SDS011;61017;37.812;-122.286;2023-02-28T11:07:27;5.55;;;1.50;;
72882;SDS011;61017;37.812;-122.286;2023-02-28T11:09:22;5.05;;;1.60;;
72882;SDS011;61017;37.812;-122.286;2023-02-28T11:10:57;6.53;;;1.60;;
72882;SDS011;61017;37.812;-122.286;2023-02-28T11:12:36;3.88;;;1.40;;
72882;SDS011;61017;37.812;-122.286;2023-02-28T11:14:17;5.20;;;1.52;;
72882;SDS011;61017;37.812;-122.286;2023-02-28T11:15:57;4.35;;;1.58;;
72882;SDS011;61017;37.812;-122.286;2023-02-28T11:17:31;4.35;;;1.67;;
72882;SDS011;61017;37.812;-122.286;2023-02-28T11:19:04;7.20;;;1.73;;
72882;SDS011;61017;37.812;-122.286;2023-02-28T11:20:50;5.65;;;1.55;;
72882;SDS011;61017;37.812;-122.286;2023-02-28T11:22:43;5.60;;;1.83;;
72882;SDS011;61017;37.812;-122.286;2023-02-28T11:24:27;4.97;;;1.67;;
72882;SDS011;61017;37.812;-122.286;2023-02-28T11:26:05;4.20;;;1.40;;
72882;SDS011;61017;37.812;-122.286;2023-02-28T11:27:45;5.95;;;1.60;;
72882;SDS011;61017;37.812;-122.286;2023-02-28T11:29:20;4.35;;;1.50;;
72882;SDS011;61017;37.812;-122.286;2023-02-28T11:31:01;5.00;;;1.40;;
72882;SDS011;61017;37.812;-122.286;2023-02-28T11:32:35;6.38;;;1.95;;
72882;SDS011;61017;37.812;-122.286;2023-02-28T11:34:23;4.43;;;1.58;;
72882;SDS011;61017;37.812;-122.286;2023-02-28T11:36:13;4.68;;;1.40;;
72882;SDS011;61017;37.812;-122.286;2023-02-28T11:37:53;3.53;;;1.48;;
72882;SDS011;61017;37.812;-122.286;2023-02-28T11:39:26;4.38;;;1.52;;
72882;SDS011;61017;37.812;-122.286;2023-02-28T11:41:14;6.68;;;1.73;;
72882;SDS011;61017;37.812;-122.286;2023-02-28T11:47:12;4.05;;;1.50;;
72882;SDS011;61017;37.812;-122.286;2023-02-28T11:51:24;4.20;;;1.58;;
72882;SDS011;61017;37.812;-122.286;2023-02-28T11:53:01;3.47;;;1.27;;
72882;SDS011;61017;37.812;-122.286;2023-02-28T12:00:44;3.47;;;1.50;;
72882;SDS011;61017;37.812;-122.286;2023-02-28T12:06:35;4.15;;;1.65;;
72882;SDS011;61017;37.812;-122.286;2023-02-28T12:08:22;5.10;;;1.52;;
72882;SDS011;61017;37.812;-122.286;2023-02-28T12:13:26;4.47;;;1.85;;
72882;SDS011;61017;37.812;-122.286;2023-02-28T12:17:15;3.63;;;1.30;;
72882;SDS011;61017;37.812;-122.286;2023-02-28T12:19:03;4.47;;;1.52;;
72882;SDS011;61017;37.812;-122.286;2023-02-28T12:22:30;4.90;;;1.60;;
72882;SDS011;61017;37.812;-122.286;2023-02-28T12:26:01;4.85;;;1.50;;
72882;SDS011;61017;37.812;-122.286;2023-02-28T12:27:51;5.20;;;1.60;;
72882;SDS011;61017;37.812;-122.286;2023-02-28T12:31:23;5.78;;;1.58;;
72882;SDS011;61017;37.812;-122.286;2023-02-28T12:33:05;4.82;;;1.33;;
72882;SDS011;61017;37.812;-122.286;2023-02-28T12:34:38;5.00;;;1.70;;
72882;SDS011;61017;37.812;-122.286;2023-02-28T12:36:14;5.05;;;1.52;;
72882;SDS011;61017;37.812;-122.286;2023-02-28T12:39:44;3.95;;;1.35;;
72882;SDS011;61017;37.812;-122.286;2023-02-28T12:42:58;3.67;;;1.40;;
72882;SDS011;61017;37.812;-122.286;2023-02-28T12:44:40;4.88;;;1.55;;
72882;SDS011;61017;37.812;-122.286;2023-02-28T12:46:44;4.88;;;1.75;;
72882;SDS011;61017;37.812;-122.286;2023-02-28T12:48:31;4.25;;;1.48;;
72882;SDS011;61017;37.812;-122.286;2023-02-28T12:50:11;4.90;;;1.42;;
72882;SDS011;61017;37.812;-122.286;2023-02-28T12:51:43;4.25;;;1.40;;
72882;SDS011;61017;37.812;-122.286;2023-02-28T12:57:10;4.15;;;1.50;;
72882;SDS011;61017;37.812;-122.286;2023-02-28T12:58:45;4.88;;;1.40;;
72882;SDS011;61017;37.812;-122.286;2023-02-28T13:00:25;4.72;;;1.40;;
72882;SDS011;61017;37.812;-122.286;2023-02-28T13:04:27;5.00;;;1.50;;
72882;SDS011;61017;37.812;-122.286;2023-02-28T13:10:07;4.60;;;1.40;;
72882;SDS011;61017;37.812;-122.286;2023-02-28T13:11:45;5.50;;;1.50;;